sensor_id;sensor_type;location;lat;lon;timestamp;temperature;humidity
29341;DHT22;16337;59.536;13.468;2022-12-01T00:00:36;1.60;99.90
29341;DHT22;16337;59.536;13.468;2022-12-01T00:03:02;1.60;99.90
29341;DHT22;16337;59.536;13.468;2022-12-01T00:05:28;1.60;99.90
29341;DHT22;16337;59.536;13.468;2022-12-01T00:07:54;1.60;99.90
29341;DHT22;16337;59.536;13.468;2022-12-01T00:10:21;1.60;99.90
29341;DHT22;16337;59.536;13.468;2022-12-01T00:13:01;1.60;99.90
29341;DHT22;16337;59.536;13.468;2022-12-01T00:15:30;1.60;99.90
29341;DHT22;16337;59.536;13.468;2022-12-01T00:17:57;1.60;99.90
29341;DHT22;16337;59.536;13.468;2022-12-01T00:20:23;1.60;99.90
29341;DHT22;16337;59.536;13.468;2022-12-01T00:22:49;1.60;99.90
29341;DHT22;16337;59.536;13.468;2022-12-01T00:25:17;1.50;99.90
29341;DHT22;16337;59.536;13.468;2022-12-01T00:27:47;1.60;99.90
29341;DHT22;16337;59.536;13.468;2022-12-01T00:30:14;1.60;99.90
29341;DHT22;16337;59.536;13.468;2022-12-01T00:32:40;1.50;99.90
29341;DHT22;16337;59.536;13.468;2022-12-01T00:35:05;1.50;99.90
29341;DHT22;16337;59.536;13.468;2022-12-01T00:37:33;1.50;99.90
29341;DHT22;16337;59.536;13.468;2022-12-01T00:39:59;1.50;99.90
29341;DHT22;16337;59.536;13.468;2022-12-01T00:42:26;1.50;99.90
29341;DHT22;16337;59.536;13.468;2022-12-01T00:44:53;1.40;99.90
29341;DHT22;16337;59.536;13.468;2022-12-01T00:47:18;1.40;99.90
29341;DHT22;16337;59.536;13.468;2022-12-01T00:49:44;1.40;99.90
29341;DHT22;16337;59.536;13.468;2022-12-01T00:52:15;1.40;99.90
29341;DHT22;16337;59.536;13.468;2022-12-01T00:54:41;1.40;99.90
29341;DHT22;16337;59.536;13.468;2022-12-01T00:57:08;1.40;99.90
29341;DHT22;16337;59.536;13.468;2022-12-01T00:59:33;1.40;99.90
29341;DHT22;16337;59.536;13.468;2022-12-01T01:02:00;1.40;99.90
29341;DHT22;16337;59.536;13.468;2022-12-01T01:04:29;1.40;99.90
29341;DHT22;16337;59.536;13.468;2022-12-01T01:06:55;1.40;99.90
29341;DHT22;16337;59.536;13.468;2022-12-01T01:09:21;1.50;99.90
29341;DHT22;16337;59.536;13.468;2022-12-01T01:11:46;1.50;99.90
29341;DHT22;16337;59.536;13.468;2022-12-01T01:14:13;1.40;99.90
29341;DHT22;16337;59.536;13.468;2022-12-01T01:16:38;1.40;99.90
29341;DHT22;16337;59.536;13.468;2022-12-01T01:19:04;1.40;99.90
29341;DHT22;16337;59.536;13.468;2022-12-01T01:21:30;1.40;99.90
29341;DHT22;16337;59.536;13.468;2022-12-01T01:23:55;1.40;99.90
29341;DHT22;16337;59.536;13.468;2022-12-01T01:28:48;1.30;99.90
29341;DHT22;16337;59.536;13.468;2022-12-01T01:31:22;1.30;99.90
29341;DHT22;16337;59.536;13.468;2022-12-01T01:33:49;1.30;99.90
29341;DHT22;16337;59.536;13.468;2022-12-01T01:36:16;1.30;99.90
29341;DHT22;16337;59.536;13.468;2022-12-01T01:38:42;1.30;99.90
29341;DHT22;16337;59.536;13.468;2022-12-01T01:41:08;1.30;99.90
29341;DHT22;16337;59.536;13.468;2022-12-01T01:46:16;1.30;99.90
29341;DHT22;16337;59.536;13.468;2022-12-01T01:48:55;1.20;99.90
29341;DHT22;16337;59.536;13.468;2022-12-01T01:52:07;1.30;99.90
29341;DHT22;16337;59.536;13.468;2022-12-01T01:54:21;1.20;99.90
29341;DHT22;16337;59.536;13.468;2022-12-01T01:56:49;1.20;99.90
29341;DHT22;16337;59.536;13.468;2022-12-01T01:59:20;1.20;99.90
29341;DHT22;16337;59.536;13.468;2022-12-01T02:01:51;1.20;99.90
29341;DHT22;16337;59.536;13.468;2022-12-01T02:04:22;1.10;99.90
29341;DHT22;16337;59.536;13.468;2022-12-01T02:06:48;1.20;99.90
29341;DHT22;16337;59.536;13.468;2022-12-01T02:09:14;1.10;99.90
29341;DHT22;16337;59.536;13.468;2022-12-01T02:36:57;1.20;99.90
29341;DHT22;16337;59.536;13.468;2022-12-01T02:39:31;1.20;99.90
29341;DHT22;16337;59.536;13.468;2022-12-01T02:42:18;1.20;99.90
29341;DHT22;16337;59.536;13.468;2022-12-01T02:45:06;1.20;99.90
29341;DHT22;16337;59.536;13.468;2022-12-01T02:47:36;1.20;99.90
29341;DHT22;16337;59.536;13.468;2022-12-01T02:50:04;1.10;99.90
29341;DHT22;16337;59.536;13.468;2022-12-01T02:52:30;1.20;99.90
29341;DHT22;16337;59.536;13.468;2022-12-01T02:54:56;1.20;99.90
29341;DHT22;16337;59.536;13.468;2022-12-01T02:57:22;1.20;99.90
29341;DHT22;16337;59.536;13.468;2022-12-01T02:59:52;1.10;99.90
29341;DHT22;16337;59.536;13.468;2022-12-01T03:05:32;1.20;99.90
29341;DHT22;16337;59.536;13.468;2022-12-01T03:08:34;1.20;99.90
29341;DHT22;16337;59.536;13.468;2022-12-01T03:11:15;1.20;99.90
29341;DHT22;16337;59.536;13.468;2022-12-01T03:16:52;1.20;99.90
29341;DHT22;16337;59.536;13.468;2022-12-01T03:22:27;1.10;99.90
29341;DHT22;16337;59.536;13.468;2022-12-01T03:24:55;1.10;99.90
29341;DHT22;16337;59.536;13.468;2022-12-01T03:27:24;1.10;99.90
29341;DHT22;16337;59.536;13.468;2022-12-01T03:29:54;1.10;99.90
29341;DHT22;16337;59.536;13.468;2022-12-01T03:32:22;1.10;99.90
29341;DHT22;16337;59.536;13.468;2022-12-01T03:35:12;1.10;99.90
29341;DHT22;16337;59.536;13.468;2022-12-01T03:37:46;1.10;99.90
29341;DHT22;16337;59.536;13.468;2022-12-01T03:40:17;1.10;99.90
29341;DHT22;16337;59.536;13.468;2022-12-01T03:42:48;1.10;99.90
29341;DHT22;16337;59.536;13.468;2022-12-01T03:45:22;1.10;99.90
29341;DHT22;16337;59.536;13.468;2022-12-01T03:47:49;1.10;99.90
29341;DHT22;16337;59.536;13.468;2022-12-01T03:50:16;1.10;99.90
29341;DHT22;16337;59.536;13.468;2022-12-01T03:55:35;1.10;99.90
29341;DHT22;16337;59.536;13.468;2022-12-01T03:58:10;1.10;99.90
29341;DHT22;16337;59.536;13.468;2022-12-01T04:00:37;1.00;99.90
29341;DHT22;16337;59.536;13.468;2022-12-01T04:03:04;1.10;99.90
29341;DHT22;16337;59.536;13.468;2022-12-01T04:05:31;1.10;99.90
29341;DHT22;16337;59.536;13.468;2022-12-01T04:07:57;1.10;99.90
29341;DHT22;16337;59.536;13.468;2022-12-01T04:10:23;1.10;99.90
29341;DHT22;16337;59.536;13.468;2022-12-01T04:12:49;1.10;99.90
29341;DHT22;16337;59.536;13.468;2022-12-01T04:15:15;1.10;99.90
29341;DHT22;16337;59.536;13.468;2022-12-01T04:17:42;1.10;99.90
29341;DHT22;16337;59.536;13.468;2022-12-01T04:20:11;1.00;99.90
29341;DHT22;16337;59.536;13.468;2022-12-01T04:22:37;1.10;99.90
29341;DHT22;16337;59.536;13.468;2022-12-01T04:25:04;1.10;99.90
29341;DHT22;16337;59.536;13.468;2022-12-01T04:27:31;1.00;99.90
29341;DHT22;16337;59.536;13.468;2022-12-01T04:29:57;1.00;99.90
29341;DHT22;16337;59.536;13.468;2022-12-01T04:32:23;1.00;99.90
29341;DHT22;16337;59.536;13.468;2022-12-01T04:34:48;1.00;99.90
29341;DHT22;16337;59.536;13.468;2022-12-01T04:37:14;1.00;99.90
29341;DHT22;16337;59.536;13.468;2022-12-01T04:39:40;1.00;99.90
29341;DHT22;16337;59.536;13.468;2022-12-01T04:42:07;1.00;99.90
29341;DHT22;16337;59.536;13.468;2022-12-01T04:44:33;1.00;99.90
29341;DHT22;16337;59.536;13.468;2022-12-01T04:46:58;1.00;99.90
29341;DHT22;16337;59.536;13.468;2022-12-01T04:49:24;1.00;99.90
29341;DHT22;16337;59.536;13.468;2022-12-01T04:51:50;1.00;99.90
29341;DHT22;16337;59.536;13.468;2022-12-01T04:54:16;1.00;99.90
29341;DHT22;16337;59.536;13.468;2022-12-01T04:56:42;1.00;99.90
29341;DHT22;16337;59.536;13.468;2022-12-01T04:59:08;1.00;99.90
29341;DHT22;16337;59.536;13.468;2022-12-01T05:01:33;1.00;99.90
29341;DHT22;16337;59.536;13.468;2022-12-01T05:04:00;1.00;99.90
29341;DHT22;16337;59.536;13.468;2022-12-01T05:06:27;1.00;99.90
29341;DHT22;16337;59.536;13.468;2022-12-01T05:08:55;0.90;99.90
29341;DHT22;16337;59.536;13.468;2022-12-01T05:11:22;0.90;99.90
29341;DHT22;16337;59.536;13.468;2022-12-01T05:13:48;1.00;99.90
29341;DHT22;16337;59.536;13.468;2022-12-01T05:16:18;1.00;99.90
29341;DHT22;16337;59.536;13.468;2022-12-01T05:19:04;1.00;99.90
29341;DHT22;16337;59.536;13.468;2022-12-01T05:21:49;1.00;99.90
29341;DHT22;16337;59.536;13.468;2022-12-01T05:24:16;1.00;99.90
29341;DHT22;16337;59.536;13.468;2022-12-01T05:26:42;1.00;99.90
29341;DHT22;16337;59.536;13.468;2022-12-01T05:29:09;1.00;99.90
29341;DHT22;16337;59.536;13.468;2022-12-01T05:31:35;0.90;99.90
29341;DHT22;16337;59.536;13.468;2022-12-01T05:34:01;1.00;99.90
29341;DHT22;16337;59.536;13.468;2022-12-01T05:36:27;0.90;99.90
29341;DHT22;16337;59.536;13.468;2022-12-01T05:38:52;0.80;99.90
29341;DHT22;16337;59.536;13.468;2022-12-01T05:41:19;0.90;99.90
29341;DHT22;16337;59.536;13.468;2022-12-01T05:43:44;0.80;99.90
29341;DHT22;16337;59.536;13.468;2022-12-01T05:46:11;0.90;99.90
29341;DHT22;16337;59.536;13.468;2022-12-01T05:48:37;0.90;99.90
29341;DHT22;16337;59.536;13.468;2022-12-01T05:51:14;0.90;99.90
29341;DHT22;16337;59.536;13.468;2022-12-01T05:53:40;0.90;99.90
29341;DHT22;16337;59.536;13.468;2022-12-01T05:56:07;0.90;99.90
29341;DHT22;16337;59.536;13.468;2022-12-01T05:58:33;0.80;99.90
29341;DHT22;16337;59.536;13.468;2022-12-01T06:01:00;0.80;99.90
29341;DHT22;16337;59.536;13.468;2022-12-01T06:03:25;0.80;99.90
29341;DHT22;16337;59.536;13.468;2022-12-01T06:05:51;0.80;99.90
29341;DHT22;16337;59.536;13.468;2022-12-01T06:08:17;0.80;99.90
29341;DHT22;16337;59.536;13.468;2022-12-01T06:10:43;0.80;99.90
29341;DHT22;16337;59.536;13.468;2022-12-01T06:13:09;0.80;99.90
29341;DHT22;16337;59.536;13.468;2022-12-01T06:15:35;0.80;99.90
29341;DHT22;16337;59.536;13.468;2022-12-01T06:18:00;0.80;99.90
29341;DHT22;16337;59.536;13.468;2022-12-01T06:20:26;0.80;99.90
29341;DHT22;16337;59.536;13.468;2022-12-01T06:22:52;0.80;99.90
29341;DHT22;16337;59.536;13.468;2022-12-01T06:25:18;0.80;99.90
29341;DHT22;16337;59.536;13.468;2022-12-01T06:27:44;0.80;99.90
29341;DHT22;16337;59.536;13.468;2022-12-01T06:30:10;0.80;99.90
29341;DHT22;16337;59.536;13.468;2022-12-01T06:32:35;0.80;99.90
29341;DHT22;16337;59.536;13.468;2022-12-01T06:35:01;0.90;99.90
29341;DHT22;16337;59.536;13.468;2022-12-01T06:37:27;0.90;99.90
29341;DHT22;16337;59.536;13.468;2022-12-01T06:39:53;0.90;99.90
29341;DHT22;16337;59.536;13.468;2022-12-01T06:42:18;0.80;99.90
29341;DHT22;16337;59.536;13.468;2022-12-01T06:44:44;0.90;99.90
29341;DHT22;16337;59.536;13.468;2022-12-01T06:47:10;0.80;99.90
29341;DHT22;16337;59.536;13.468;2022-12-01T06:49:36;0.80;99.90
29341;DHT22;16337;59.536;13.468;2022-12-01T06:52:03;0.80;99.90
29341;DHT22;16337;59.536;13.468;2022-12-01T06:54:29;0.80;99.90
29341;DHT22;16337;59.536;13.468;2022-12-01T06:56:55;0.80;99.90
29341;DHT22;16337;59.536;13.468;2022-12-01T06:59:20;0.80;99.90
29341;DHT22;16337;59.536;13.468;2022-12-01T07:01:46;0.80;99.90
29341;DHT22;16337;59.536;13.468;2022-12-01T07:04:12;0.80;99.90
29341;DHT22;16337;59.536;13.468;2022-12-01T07:06:37;0.80;99.90
29341;DHT22;16337;59.536;13.468;2022-12-01T07:09:03;0.80;99.90
29341;DHT22;16337;59.536;13.468;2022-12-01T07:11:28;0.80;99.90
29341;DHT22;16337;59.536;13.468;2022-12-01T07:13:57;0.80;99.90
29341;DHT22;16337;59.536;13.468;2022-12-01T07:16:22;0.90;99.90
29341;DHT22;16337;59.536;13.468;2022-12-01T07:18:48;0.90;99.90
29341;DHT22;16337;59.536;13.468;2022-12-01T07:21:15;0.90;99.90
29341;DHT22;16337;59.536;13.468;2022-12-01T07:23:41;0.90;99.90
29341;DHT22;16337;59.536;13.468;2022-12-01T07:26:14;0.90;99.90
29341;DHT22;16337;59.536;13.468;2022-12-01T07:28:40;0.90;99.90
29341;DHT22;16337;59.536;13.468;2022-12-01T07:33:34;0.90;99.90
29341;DHT22;16337;59.536;13.468;2022-12-01T07:36:02;0.90;99.90
29341;DHT22;16337;59.536;13.468;2022-12-01T07:38:28;0.90;99.90
29341;DHT22;16337;59.536;13.468;2022-12-01T07:40:54;0.90;99.90
29341;DHT22;16337;59.536;13.468;2022-12-01T07:43:20;0.90;99.90
29341;DHT22;16337;59.536;13.468;2022-12-01T07:45:46;0.90;99.90
29341;DHT22;16337;59.536;13.468;2022-12-01T07:48:11;0.90;99.90
29341;DHT22;16337;59.536;13.468;2022-12-01T07:50:37;0.80;99.90
29341;DHT22;16337;59.536;13.468;2022-12-01T07:53:03;0.80;99.90
29341;DHT22;16337;59.536;13.468;2022-12-01T07:55:28;0.80;99.90
29341;DHT22;16337;59.536;13.468;2022-12-01T07:57:54;0.80;99.90
29341;DHT22;16337;59.536;13.468;2022-12-01T08:00:20;0.90;99.90
29341;DHT22;16337;59.536;13.468;2022-12-01T08:02:47;0.90;99.90
29341;DHT22;16337;59.536;13.468;2022-12-01T08:05:13;0.90;99.90
29341;DHT22;16337;59.536;13.468;2022-12-01T08:07:39;0.90;99.90
29341;DHT22;16337;59.536;13.468;2022-12-01T08:10:05;0.90;99.90
29341;DHT22;16337;59.536;13.468;2022-12-01T08:12:30;0.90;99.90
29341;DHT22;16337;59.536;13.468;2022-12-01T08:14:56;0.90;99.90
29341;DHT22;16337;59.536;13.468;2022-12-01T08:17:22;0.90;99.90
29341;DHT22;16337;59.536;13.468;2022-12-01T08:19:47;0.90;99.90
29341;DHT22;16337;59.536;13.468;2022-12-01T08:22:13;0.90;99.90
29341;DHT22;16337;59.536;13.468;2022-12-01T08:24:39;0.90;99.90
29341;DHT22;16337;59.536;13.468;2022-12-01T08:27:04;1.00;99.90
29341;DHT22;16337;59.536;13.468;2022-12-01T08:29:30;0.90;99.90
29341;DHT22;16337;59.536;13.468;2022-12-01T08:31:58;1.00;99.90
29341;DHT22;16337;59.536;13.468;2022-12-01T08:34:24;0.90;99.90
29341;DHT22;16337;59.536;13.468;2022-12-01T08:36:50;1.00;99.90
29341;DHT22;16337;59.536;13.468;2022-12-01T08:39:15;1.00;99.90
29341;DHT22;16337;59.536;13.468;2022-12-01T08:41:41;1.00;99.90
29341;DHT22;16337;59.536;13.468;2022-12-01T08:44:09;1.10;99.90
29341;DHT22;16337;59.536;13.468;2022-12-01T08:46:35;1.20;99.90
29341;DHT22;16337;59.536;13.468;2022-12-01T08:49:02;1.20;99.90
29341;DHT22;16337;59.536;13.468;2022-12-01T08:51:28;1.20;99.90
29341;DHT22;16337;59.536;13.468;2022-12-01T08:53:56;1.20;99.90
29341;DHT22;16337;59.536;13.468;2022-12-01T08:56:28;1.20;99.90
29341;DHT22;16337;59.536;13.468;2022-12-01T08:58:55;1.20;99.90
29341;DHT22;16337;59.536;13.468;2022-12-01T09:01:21;1.20;99.90
29341;DHT22;16337;59.536;13.468;2022-12-01T09:03:47;1.20;99.90
29341;DHT22;16337;59.536;13.468;2022-12-01T09:06:18;1.30;99.90
29341;DHT22;16337;59.536;13.468;2022-12-01T09:08:47;1.30;99.90
29341;DHT22;16337;59.536;13.468;2022-12-01T09:11:15;1.30;99.90
29341;DHT22;16337;59.536;13.468;2022-12-01T09:13:41;1.40;99.90
29341;DHT22;16337;59.536;13.468;2022-12-01T09:16:11;1.40;99.90
29341;DHT22;16337;59.536;13.468;2022-12-01T09:18:38;1.50;99.90
29341;DHT22;16337;59.536;13.468;2022-12-01T09:21:28;1.50;99.90
29341;DHT22;16337;59.536;13.468;2022-12-01T09:23:57;1.50;99.90
29341;DHT22;16337;59.536;13.468;2022-12-01T09:26:23;1.50;99.90
29341;DHT22;16337;59.536;13.468;2022-12-01T09:28:52;1.50;99.90
29341;DHT22;16337;59.536;13.468;2022-12-01T09:31:18;1.50;99.90
29341;DHT22;16337;59.536;13.468;2022-12-01T09:33:45;1.60;99.90
29341;DHT22;16337;59.536;13.468;2022-12-01T09:36:11;1.60;99.90
29341;DHT22;16337;59.536;13.468;2022-12-01T09:38:38;1.60;99.90
29341;DHT22;16337;59.536;13.468;2022-12-01T09:41:16;1.70;99.90
29341;DHT22;16337;59.536;13.468;2022-12-01T09:46:38;1.90;99.90
29341;DHT22;16337;59.536;13.468;2022-12-01T09:49:18;2.00;99.90
29341;DHT22;16337;59.536;13.468;2022-12-01T09:51:45;2.00;99.90
29341;DHT22;16337;59.536;13.468;2022-12-01T09:54:12;2.10;99.90
29341;DHT22;16337;59.536;13.468;2022-12-01T09:56:47;2.20;99.90
29341;DHT22;16337;59.536;13.468;2022-12-01T09:59:26;2.20;99.90
29341;DHT22;16337;59.536;13.468;2022-12-01T10:01:57;2.20;99.90
29341;DHT22;16337;59.536;13.468;2022-12-01T10:07:23;2.30;99.90
29341;DHT22;16337;59.536;13.468;2022-12-01T10:09:54;2.30;99.90
29341;DHT22;16337;59.536;13.468;2022-12-01T10:12:23;2.30;99.90
29341;DHT22;16337;59.536;13.468;2022-12-01T10:14:55;2.30;99.90
29341;DHT22;16337;59.536;13.468;2022-12-01T10:22:57;2.20;99.90
29341;DHT22;16337;59.536;13.468;2022-12-01T10:25:27;2.20;99.90
29341;DHT22;16337;59.536;13.468;2022-12-01T10:30:40;2.20;99.90
29341;DHT22;16337;59.536;13.468;2022-12-01T10:33:24;2.20;99.90
29341;DHT22;16337;59.536;13.468;2022-12-01T10:35:50;2.20;99.90
29341;DHT22;16337;59.536;13.468;2022-12-01T10:38:26;2.20;99.90
29341;DHT22;16337;59.536;13.468;2022-12-01T10:40:54;2.10;99.90
29341;DHT22;16337;59.536;13.468;2022-12-01T10:43:59;2.20;99.90
29341;DHT22;16337;59.536;13.468;2022-12-01T10:46:40;2.20;99.90
29341;DHT22;16337;59.536;13.468;2022-12-01T10:49:13;2.30;99.90
29341;DHT22;16337;59.536;13.468;2022-12-01T10:52:05;2.30;99.90
29341;DHT22;16337;59.536;13.468;2022-12-01T10:54:38;2.20;99.90
29341;DHT22;16337;59.536;13.468;2022-12-01T10:57:06;2.20;99.90
29341;DHT22;16337;59.536;13.468;2022-12-01T10:59:39;2.20;99.90
29341;DHT22;16337;59.536;13.468;2022-12-01T11:02:15;2.20;99.90
29341;DHT22;16337;59.536;13.468;2022-12-01T11:04:45;2.10;99.90
29341;DHT22;16337;59.536;13.468;2022-12-01T11:07:27;2.10;99.90
29341;DHT22;16337;59.536;13.468;2022-12-01T11:12:38;2.10;99.90
29341;DHT22;16337;59.536;13.468;2022-12-01T11:15:05;2.10;99.90
29341;DHT22;16337;59.536;13.468;2022-12-01T11:17:41;2.10;99.90
29341;DHT22;16337;59.536;13.468;2022-12-01T11:28:20;2.10;99.90
29341;DHT22;16337;59.536;13.468;2022-12-01T11:30:46;2.10;99.90
29341;DHT22;16337;59.536;13.468;2022-12-01T11:33:18;2.10;99.90
29341;DHT22;16337;59.536;13.468;2022-12-01T11:35:46;2.10;99.90
29341;DHT22;16337;59.536;13.468;2022-12-01T11:38:21;2.20;99.90
29341;DHT22;16337;59.536;13.468;2022-12-01T11:40:56;2.30;99.90
29341;DHT22;16337;59.536;13.468;2022-12-01T11:43:29;2.20;99.90
29341;DHT22;16337;59.536;13.468;2022-12-01T11:45:58;2.30;99.90
29341;DHT22;16337;59.536;13.468;2022-12-01T11:48:31;2.30;99.90
29341;DHT22;16337;59.536;13.468;2022-12-01T11:51:11;2.30;99.90
29341;DHT22;16337;59.536;13.468;2022-12-01T11:53:41;2.30;99.90
29341;DHT22;16337;59.536;13.468;2022-12-01T11:56:23;2.30;99.90
29341;DHT22;16337;59.536;13.468;2022-12-01T11:58:58;2.20;99.90
29341;DHT22;16337;59.536;13.468;2022-12-01T12:01:36;2.20;99.90
29341;DHT22;16337;59.536;13.468;2022-12-01T12:07:43;2.20;99.90
29341;DHT22;16337;59.536;13.468;2022-12-01T12:21:33;2.30;99.90
29341;DHT22;16337;59.536;13.468;2022-12-01T12:26:31;2.40;99.90
29341;DHT22;16337;59.536;13.468;2022-12-01T12:29:20;2.40;99.90
29341;DHT22;16337;59.536;13.468;2022-12-01T12:34:39;2.40;99.90
29341;DHT22;16337;59.536;13.468;2022-12-01T12:48:27;2.40;99.90
29341;DHT22;16337;59.536;13.468;2022-12-01T12:53:50;2.40;99.90
29341;DHT22;16337;59.536;13.468;2022-12-01T12:56:20;2.40;99.90
29341;DHT22;16337;59.536;13.468;2022-12-01T12:59:01;2.40;99.90
29341;DHT22;16337;59.536;13.468;2022-12-01T13:01:33;2.40;99.90
29341;DHT22;16337;59.536;13.468;2022-12-01T13:06:40;2.30;99.90
29341;DHT22;16337;59.536;13.468;2022-12-01T13:09:14;2.30;99.90
29341;DHT22;16337;59.536;13.468;2022-12-01T13:11:56;2.30;99.90
29341;DHT22;16337;59.536;13.468;2022-12-01T13:14:31;2.30;99.90
29341;DHT22;16337;59.536;13.468;2022-12-01T13:17:13;2.30;99.90
29341;DHT22;16337;59.536;13.468;2022-12-01T13:19:41;2.30;99.90
29341;DHT22;16337;59.536;13.468;2022-12-01T13:22:11;2.30;99.90
29341;DHT22;16337;59.536;13.468;2022-12-01T13:24:38;2.20;99.90
29341;DHT22;16337;59.536;13.468;2022-12-01T13:29:44;2.20;99.90
29341;DHT22;16337;59.536;13.468;2022-12-01T13:34:54;2.20;99.90
29341;DHT22;16337;59.536;13.468;2022-12-01T13:37:28;2.20;99.90
29341;DHT22;16337;59.536;13.468;2022-12-01T13:40:18;2.20;99.90
29341;DHT22;16337;59.536;13.468;2022-12-01T13:45:19;2.10;99.90
29341;DHT22;16337;59.536;13.468;2022-12-01T13:47:54;2.10;99.90
29341;DHT22;16337;59.536;13.468;2022-12-01T14:06:43;1.80;99.90
29341;DHT22;16337;59.536;13.468;2022-12-01T14:09:41;1.80;99.90
29341;DHT22;16337;59.536;13.468;2022-12-01T14:12:27;1.80;99.90
29341;DHT22;16337;59.536;13.468;2022-12-01T14:15:02;1.80;99.90
29341;DHT22;16337;59.536;13.468;2022-12-01T14:17:36;1.80;99.90
29341;DHT22;16337;59.536;13.468;2022-12-01T14:20:21;1.80;99.90
29341;DHT22;16337;59.536;13.468;2022-12-01T14:23:02;1.70;99.90
29341;DHT22;16337;59.536;13.468;2022-12-01T14:25:29;1.70;99.90
29341;DHT22;16337;59.536;13.468;2022-12-01T14:28:00;1.70;99.90
29341;DHT22;16337;59.536;13.468;2022-12-01T14:36:44;1.60;99.90
29341;DHT22;16337;59.536;13.468;2022-12-01T14:39:19;1.50;99.90
29341;DHT22;16337;59.536;13.468;2022-12-01T14:44:34;1.50;99.90
29341;DHT22;16337;59.536;13.468;2022-12-01T14:47:11;1.40;99.90
29341;DHT22;16337;59.536;13.468;2022-12-01T14:54:55;1.30;99.90
29341;DHT22;16337;59.536;13.468;2022-12-01T14:57:31;1.30;99.90
29341;DHT22;16337;59.536;13.468;2022-12-01T15:02:27;1.20;99.90
29341;DHT22;16337;59.536;13.468;2022-12-01T15:07:53;1.10;99.90
29341;DHT22;16337;59.536;13.468;2022-12-01T15:12:47;1.00;99.90
29341;DHT22;16337;59.536;13.468;2022-12-01T15:17:39;1.00;99.90
29341;DHT22;16337;59.536;13.468;2022-12-01T15:22:54;1.00;99.90
29341;DHT22;16337;59.536;13.468;2022-12-01T15:25:20;0.90;99.90
29341;DHT22;16337;59.536;13.468;2022-12-01T15:28:10;0.90;99.90
29341;DHT22;16337;59.536;13.468;2022-12-01T15:30:36;0.90;99.90
29341;DHT22;16337;59.536;13.468;2022-12-01T15:33:04;0.90;99.90
29341;DHT22;16337;59.536;13.468;2022-12-01T15:35:30;0.80;99.90
29341;DHT22;16337;59.536;13.468;2022-12-01T15:37:56;0.70;99.90
29341;DHT22;16337;59.536;13.468;2022-12-01T15:40:22;0.70;99.90
29341;DHT22;16337;59.536;13.468;2022-12-01T15:43:06;0.70;99.90
29341;DHT22;16337;59.536;13.468;2022-12-01T15:48:16;0.70;99.90
29341;DHT22;16337;59.536;13.468;2022-12-01T15:50:47;0.60;99.90
29341;DHT22;16337;59.536;13.468;2022-12-01T15:53:28;0.60;99.90
29341;DHT22;16337;59.536;13.468;2022-12-01T15:55:57;0.50;99.90
29341;DHT22;16337;59.536;13.468;2022-12-01T15:58:29;0.40;99.90
29341;DHT22;16337;59.536;13.468;2022-12-01T16:01:09;0.50;99.90
29341;DHT22;16337;59.536;13.468;2022-12-01T16:03:59;0.40;99.90
29341;DHT22;16337;59.536;13.468;2022-12-01T16:06:35;0.30;99.90
29341;DHT22;16337;59.536;13.468;2022-12-01T16:09:15;0.30;99.90
29341;DHT22;16337;59.536;13.468;2022-12-01T16:12:05;0.30;99.90
29341;DHT22;16337;59.536;13.468;2022-12-01T16:14:32;0.20;99.90
29341;DHT22;16337;59.536;13.468;2022-12-01T16:16:59;0.30;99.90
29341;DHT22;16337;59.536;13.468;2022-12-01T16:19:31;0.20;99.90
29341;DHT22;16337;59.536;13.468;2022-12-01T16:24:44;0.20;99.90
29341;DHT22;16337;59.536;13.468;2022-12-01T16:27:21;0.20;99.90
29341;DHT22;16337;59.536;13.468;2022-12-01T16:34:55;0.10;99.90
29341;DHT22;16337;59.536;13.468;2022-12-01T16:37:21;0.00;99.90
29341;DHT22;16337;59.536;13.468;2022-12-01T16:39:47;0.00;99.90
29341;DHT22;16337;59.536;13.468;2022-12-01T16:42:16;0.00;99.90
29341;DHT22;16337;59.536;13.468;2022-12-01T16:44:42;0.00;99.90
29341;DHT22;16337;59.536;13.468;2022-12-01T16:47:23;-0.10;99.90
29341;DHT22;16337;59.536;13.468;2022-12-01T16:49:50;0.00;99.90
29341;DHT22;16337;59.536;13.468;2022-12-01T16:52:17;0.00;99.90
29341;DHT22;16337;59.536;13.468;2022-12-01T16:54:43;0.00;99.90
29341;DHT22;16337;59.536;13.468;2022-12-01T16:57:08;0.00;99.90
29341;DHT22;16337;59.536;13.468;2022-12-01T16:59:34;0.00;99.90
29341;DHT22;16337;59.536;13.468;2022-12-01T17:02:00;0.00;99.90
29341;DHT22;16337;59.536;13.468;2022-12-01T17:04:26;0.10;99.90
29341;DHT22;16337;59.536;13.468;2022-12-01T17:06:52;0.10;99.90
29341;DHT22;16337;59.536;13.468;2022-12-01T17:09:18;0.10;99.90
29341;DHT22;16337;59.536;13.468;2022-12-01T17:11:44;0.20;99.90
29341;DHT22;16337;59.536;13.468;2022-12-01T17:14:09;0.30;99.90
29341;DHT22;16337;59.536;13.468;2022-12-01T17:16:36;0.40;99.90
29341;DHT22;16337;59.536;13.468;2022-12-01T17:19:02;0.40;99.90
29341;DHT22;16337;59.536;13.468;2022-12-01T17:21:29;0.50;99.90
29341;DHT22;16337;59.536;13.468;2022-12-01T17:23:55;0.60;99.90
29341;DHT22;16337;59.536;13.468;2022-12-01T17:26:21;0.60;99.90
29341;DHT22;16337;59.536;13.468;2022-12-01T17:28:47;0.70;99.90
29341;DHT22;16337;59.536;13.468;2022-12-01T17:31:13;0.60;99.90
29341;DHT22;16337;59.536;13.468;2022-12-01T17:33:40;0.70;99.90
29341;DHT22;16337;59.536;13.468;2022-12-01T17:36:10;0.70;99.90
29341;DHT22;16337;59.536;13.468;2022-12-01T17:38:38;0.70;99.90
29341;DHT22;16337;59.536;13.468;2022-12-01T17:41:22;0.70;99.90
29341;DHT22;16337;59.536;13.468;2022-12-01T17:43:50;0.80;99.90
29341;DHT22;16337;59.536;13.468;2022-12-01T17:46:16;0.80;99.90
29341;DHT22;16337;59.536;13.468;2022-12-01T17:48:44;0.80;99.90
29341;DHT22;16337;59.536;13.468;2022-12-01T17:51:11;0.80;99.90
29341;DHT22;16337;59.536;13.468;2022-12-01T17:53:37;0.80;99.90
29341;DHT22;16337;59.536;13.468;2022-12-01T17:56:07;0.80;99.90
29341;DHT22;16337;59.536;13.468;2022-12-01T17:58:34;0.80;99.90
29341;DHT22;16337;59.536;13.468;2022-12-01T18:01:00;0.80;99.90
29341;DHT22;16337;59.536;13.468;2022-12-01T18:03:25;0.80;99.90
29341;DHT22;16337;59.536;13.468;2022-12-01T18:05:59;0.80;99.90
29341;DHT22;16337;59.536;13.468;2022-12-01T18:08:27;0.80;99.90
29341;DHT22;16337;59.536;13.468;2022-12-01T18:10:54;0.90;99.90
29341;DHT22;16337;59.536;13.468;2022-12-01T18:13:20;0.90;99.90
29341;DHT22;16337;59.536;13.468;2022-12-01T18:15:46;0.90;99.90
29341;DHT22;16337;59.536;13.468;2022-12-01T18:18:12;0.90;99.90
29341;DHT22;16337;59.536;13.468;2022-12-01T18:20:42;0.80;99.90
29341;DHT22;16337;59.536;13.468;2022-12-01T18:23:08;0.80;99.90
29341;DHT22;16337;59.536;13.468;2022-12-01T18:25:38;0.80;99.90
29341;DHT22;16337;59.536;13.468;2022-12-01T18:28:04;0.90;99.90
29341;DHT22;16337;59.536;13.468;2022-12-01T18:30:32;0.90;99.90
29341;DHT22;16337;59.536;13.468;2022-12-01T18:32:57;0.90;99.90